.
WxDataArchive / Data Records for 2012-04-27
2012-04-26 April 2012 2012-04-28

Data Records for Friday, 27 April 2012

Time	Temp	Chill	HIndex	Humid	Dewpt	 Wind 	HiWind	WindDir	Rain 	Barom 
-----	----	-----	------	-----	-----	------	------	-------	-----	----- 
00:00	40.1	40.1	40.1	69	30.8	0	3	270	0.00	30.087 
00:05	39.9	39.9	39.9	69	30.6	1	7	270	0.00	30.087 
00:10	39.8	39.8	39.8	69	30.5	1	4	270	0.00	30.087 
00:15	39.6	39.6	39.6	69	30.3	0	2	338	0.00	30.097 
00:20	39.6	39.6	39.6	69	30.3	1	3	338	0.00	30.097 
00:25	39.5	39.5	39.5	69	30.2	1	3	270	0.00	30.097 
00:30	39.5	39.5	39.5	69	30.2	1	3	0	0.00	30.102 
00:35	39.5	39.5	39.5	69	30.2	1	4	292	0.00	30.102 
00:40	39.2	39.2	39.2	69	29.9	1	4	270	0.00	30.102 
00:45	39.2	39.2	39.2	69	29.9	1	3	338	0.00	30.103 
00:50	39.1	39.1	39.1	69	29.8	1	6	338	0.00	30.103 
00:55	38.9	38.9	38.9	69	29.6	0	3	292	0.00	30.103 
01:00	38.8	38.8	38.8	69	29.5	0	2	292	0.00	30.102 
01:05	38.8	38.8	38.8	69	29.5	1	5	315	0.00	30.102 
01:10	38.8	38.8	38.8	69	29.5	1	5	270	0.00	30.102 
01:15	38.6	38.6	38.6	69	29.3	0	3	270	0.00	30.099 
01:20	38.5	38.5	38.5	69	29.2	0	2	270	0.00	30.099 
01:25	38.5	38.5	38.5	69	29.2	1	3	0	0.00	30.099 
01:30	38.5	38.5	38.5	69	29.2	0	3	0	0.00	30.087 
01:35	38.2	38.2	38.2	69	28.9	0	2	270	0.00	30.087 
01:40	38.0	38.0	38.0	69	28.7	0	3	270	0.00	30.087 
01:45	37.9	37.9	37.9	69	28.7	0	2	270	0.00	30.088 
01:50	37.8	37.8	37.8	69	28.6	1	3	315	0.00	30.088 
01:55	37.8	37.8	37.8	69	28.6	0	3	292	0.00	30.088 
02:00	37.6	37.6	37.6	69	28.4	0	4	292	0.00	30.089 
02:05	37.5	37.5	37.5	68	27.9	0	2	22	0.00	30.089 
02:10	37.3	37.3	37.3	68	27.7	0	1	22	0.00	30.089 
02:15	37.2	37.2	37.2	68	27.6	0	1	22	0.00	30.086 
02:20	37.2	37.2	37.2	68	27.6	0	0	---	0.00	30.086 
02:25	36.9	36.9	36.9	68	27.3	0	1	22	0.00	30.086 
02:30	36.8	36.8	36.8	68	27.2	0	1	22	0.00	30.096 
02:35	36.6	36.6	36.6	68	27.1	0	1	22	0.00	30.096 
02:40	36.5	36.5	36.5	69	27.3	0	0	---	0.00	30.096 
02:45	36.3	36.3	36.3	69	27.1	0	0	---	0.00	30.100 
02:50	36.2	36.2	36.2	69	27.0	0	0	---	0.00	30.100 
02:55	36.0	36.0	36.0	69	26.8	0	0	---	0.00	30.100 
03:00	35.9	35.9	35.9	69	26.7	0	0	---	0.00	30.104 
03:05	35.5	35.5	35.5	70	26.7	0	0	---	0.00	30.104 
03:10	35.2	35.2	35.2	70	26.4	0	0	---	0.00	30.104 
03:15	34.9	34.9	34.9	71	26.5	0	0	---	0.00	30.111 
03:20	34.6	34.6	34.6	72	26.5	0	0	---	0.00	30.111 
03:25	34.3	34.3	34.3	72	26.2	0	0	---	0.00	30.111 
03:30	34.0	34.0	34.0	73	26.3	0	0	---	0.00	30.125 
03:35	33.7	33.7	33.7	73	26.0	0	0	---	0.00	30.125 
03:40	33.4	33.4	33.4	74	26.0	0	0	---	0.00	30.125 
03:45	33.1	33.1	33.1	75	26.1	0	0	---	0.00	30.140 
03:50	32.8	32.8	32.8	76	26.1	0	0	---	0.00	30.140 
03:55	32.7	32.7	32.7	77	26.3	0	0	---	0.00	30.140 
04:00	32.5	32.5	32.5	77	26.1	0	0	---	0.00	30.149 
04:05	32.4	32.4	32.4	77	26.0	0	0	---	0.00	30.149 
04:10	32.2	32.2	32.2	78	26.1	0	0	---	0.00	30.149 
04:15	32.1	32.1	32.1	78	26.0	0	0	---	0.00	30.155 
04:20	32.1	32.1	32.1	78	26.0	0	0	---	0.00	30.155 
04:25	31.9	31.9	31.9	78	25.8	0	0	---	0.00	30.155 
04:30	31.8	31.8	31.8	78	25.7	0	0	---	0.00	30.162 
04:35	31.6	31.6	31.6	78	25.5	0	0	---	0.00	30.162 
04:40	31.5	31.5	31.5	78	25.4	0	0	---	0.00	30.162 
04:45	31.5	31.5	31.5	79	25.8	0	0	---	0.00	30.175 
04:50	31.5	31.5	31.5	78	25.4	0	0	---	0.00	30.175 
04:55	31.8	31.8	31.8	77	25.4	0	1	22	0.00	30.175 
05:00	31.9	31.9	31.9	75	24.9	0	0	---	0.00	30.179 
05:05	32.1	32.1	32.1	73	24.4	0	0	---	0.00	30.179 
05:10	32.2	32.2	32.2	72	24.2	0	0	---	0.00	30.179 
05:15	32.4	32.4	32.4	71	24.1	0	0	---	0.00	30.184 
05:20	32.4	32.4	32.4	70	23.7	0	0	---	0.00	30.184 
05:25	32.4	32.4	32.4	69	23.4	0	0	---	0.00	30.184 
05:30	32.2	32.2	32.2	69	23.2	0	0	---	0.00	30.188 
05:35	32.1	32.1	32.1	69	23.1	0	0	---	0.00	30.188 
05:40	31.9	31.9	31.9	70	23.2	0	0	---	0.00	30.188 
05:45	31.8	31.8	31.8	70	23.2	0	0	---	0.00	30.190 
05:50	31.5	31.5	31.5	70	22.9	0	0	---	0.00	30.190 
05:55	31.3	31.3	31.3	70	22.7	0	0	---	0.00	30.190 
06:00	31.0	31.0	31.0	70	22.4	0	0	---	0.00	30.189 
06:05	30.9	30.9	30.9	71	22.6	0	0	---	0.00	30.189 
06:10	30.6	30.6	30.6	72	22.7	0	0	---	0.00	30.189 
06:15	30.4	30.4	30.4	72	22.5	0	0	---	0.00	30.193 
06:20	30.3	30.3	30.3	72	22.4	0	0	---	0.00	30.193 
06:25	30.1	30.1	30.1	73	22.5	0	0	---	0.00	30.193 
06:30	30.0	30.0	30.0	73	22.4	0	0	---	0.00	30.194 
06:35	29.7	29.7	29.7	74	22.4	0	0	---	0.00	30.194 
06:40	29.7	29.7	29.7	74	22.4	0	0	---	0.00	30.194 
06:45	29.5	29.5	29.5	75	22.6	0	0	---	0.00	30.197 
06:50	29.4	29.4	29.4	75	22.5	0	0	---	0.00	30.197 
06:55	29.4	29.4	29.4	76	22.8	0	0	---	0.00	30.197 
07:00	29.4	29.4	29.4	76	22.8	0	0	---	0.00	30.207 
07:05	29.4	29.4	29.4	77	23.1	0	0	---	0.00	30.207 
07:10	29.4	29.4	29.4	77	23.1	0	0	---	0.00	30.207 
07:15	29.4	29.4	29.4	78	23.4	0	0	---	0.00	30.218 
07:20	29.4	29.4	29.4	78	23.4	0	0	---	0.00	30.218 
07:25	29.7	29.7	29.7	78	23.7	0	0	---	0.00	30.218 
07:30	30.1	30.1	30.1	77	23.8	0	0	---	0.00	30.230 
07:35	30.4	30.4	30.4	77	24.1	0	0	---	0.00	30.230 
07:40	30.9	30.9	30.9	77	24.6	0	0	---	0.00	30.230 
07:45	31.6	31.6	31.6	75	24.6	0	0	---	0.00	30.233 
07:50	32.4	32.4	32.4	74	25.1	0	1	22	0.00	30.233 
07:55	33.1	33.1	33.1	71	24.7	0	2	22	0.00	30.233 
08:00	34.0	34.0	34.0	69	24.9	0	2	22	0.00	30.236 
08:05	34.9	34.9	34.9	67	25.1	0	1	22	0.00	30.236 
08:10	35.5	35.5	35.5	65	24.9	0	4	135	0.00	30.236 
08:15	36.0	36.0	36.0	63	24.6	0	4	135	0.00	30.244 
08:20	36.3	36.3	36.3	62	24.5	0	3	135	0.00	30.244 
08:25	36.6	36.6	36.6	61	24.4	0	2	135	0.00	30.244 
08:30	37.0	37.0	37.0	62	25.2	0	3	135	0.00	30.247 
08:35	37.5	37.5	37.5	59	24.5	0	2	135	0.00	30.247 
08:40	37.9	37.9	37.9	61	25.7	1	4	135	0.00	30.247 
08:45	38.5	38.5	38.5	59	25.4	1	4	135	0.00	30.258 
08:50	38.8	38.8	38.8	58	25.3	0	1	135	0.00	30.258 
08:55	39.1	39.1	39.1	57	25.2	0	3	135	0.00	30.258 
09:00	39.1	39.1	39.1	56	24.7	1	5	135	0.00	30.265 
09:05	38.9	38.9	38.9	56	24.6	1	5	112	0.00	30.265 
09:10	38.9	38.9	38.9	57	25.0	1	5	68	0.00	30.265 
09:15	39.1	39.1	39.1	56	24.7	1	4	45	0.00	30.262 
09:20	39.5	39.5	39.5	57	25.5	1	3	112	0.00	30.262 
09:25	39.6	39.6	39.6	55	24.8	1	5	22	0.00	30.262 
09:30	39.6	39.6	39.6	55	24.8	2	5	90	0.00	30.254 
09:35	39.8	39.8	39.8	54	24.5	2	6	90	0.00	30.254 
09:40	39.9	39.9	39.9	54	24.6	1	5	112	0.00	30.254 
09:45	40.1	40.1	40.1	55	25.2	1	3	112	0.00	30.266 
09:50	40.6	40.6	40.6	54	25.3	1	4	112	0.00	30.266 
09:55	41.5	41.5	41.5	53	25.7	1	5	22	0.00	30.266 
10:00	41.5	41.5	41.5	51	24.7	3	7	112	0.00	30.260 
10:05	41.5	41.5	41.5	50	24.3	2	6	112	0.00	30.260 
10:10	41.6	41.6	41.6	48	23.4	1	4	22	0.00	30.260 
10:15	42.2	42.2	42.2	50	24.9	1	5	22	0.00	30.268 
10:20	42.6	42.6	42.6	48	24.3	1	6	68	0.00	30.268 
10:25	42.9	42.9	42.9	46	23.6	2	5	90	0.00	30.268 
10:30	43.2	43.2	43.2	46	23.8	2	4	90	0.00	30.273 
10:35	43.3	43.3	43.3	48	24.9	1	3	68	0.00	30.273 
10:40	43.8	43.8	43.8	45	23.9	3	6	90	0.00	30.273 
10:45	43.8	43.8	43.8	44	23.3	2	5	68	0.00	30.272 
10:50	43.9	43.9	43.9	46	24.5	2	6	112	0.00	30.272 
10:55	44.2	44.2	44.2	47	25.3	1	6	112	0.00	30.272 
11:00	44.2	44.2	44.2	43	23.1	1	3	112	0.00	30.276 
11:05	44.8	44.8	44.8	44	24.2	1	5	112	0.00	30.276 
11:10	45.2	45.2	45.2	45	25.1	1	4	90	0.00	30.276 
11:15	45.5	45.5	45.5	41	23.2	2	5	90	0.00	30.273 
11:20	45.5	45.5	45.5	39	22.0	1	6	112	0.00	30.273 
11:25	45.8	45.8	45.8	45	25.7	1	6	112	0.00	30.273 
11:30	46.4	46.4	46.4	43	25.1	0	3	90	0.00	30.280 
11:35	46.0	46.0	46.0	39	22.4	0	2	90	0.00	30.280 
11:40	46.4	46.4	46.4	41	24.0	1	4	22	0.00	30.280 
11:45	46.7	45.1	46.7	39	23.1	4	10	112	0.00	30.273 
11:50	46.4	46.4	46.4	41	24.0	2	6	90	0.00	30.273 
11:55	46.4	46.4	46.4	42	24.6	2	5	112	0.00	30.273 
12:00	46.5	46.5	46.5	39	22.9	1	5	112	0.00	30.277 
12:05	47.1	47.1	47.1	39	23.4	2	5	112	0.00	30.277 
12:10	47.3	47.3	47.3	40	24.2	3	11	90	0.00	30.277 
12:15	47.4	47.4	47.4	38	23.1	1	4	90	0.00	30.273 
12:20	47.7	47.7	47.7	38	23.4	2	5	90	0.00	30.273 
12:25	48.0	48.0	48.0	40	24.8	2	5	112	0.00	30.273 
12:30	48.3	48.3	48.3	43	26.9	1	3	90	0.00	30.271 
12:35	48.9	48.9	48.9	40	25.7	1	6	90	0.00	30.271 
12:40	48.9	48.9	48.9	39	25.0	3	9	90	0.00	30.271 
12:45	48.5	48.5	48.5	35	22.1	2	7	90	0.00	30.265 
12:50	48.6	48.6	48.6	36	22.9	2	6	112	0.00	30.265 
12:55	48.6	47.3	48.6	38	24.2	4	10	112	0.00	30.265 
13:00	48.5	48.5	48.5	41	25.9	2	5	112	0.00	30.258 
13:05	48.8	48.8	48.8	40	25.6	0	4	112	0.00	30.258 
13:10	49.1	49.1	49.1	35	22.6	1	3	112	0.00	30.258 
13:15	49.2	49.2	49.2	37	24.1	1	4	112	0.00	30.246 
13:20	49.6	49.6	49.6	38	25.0	2	5	90	0.00	30.246 
13:25	49.5	49.5	49.5	37	24.3	1	4	68	0.00	30.246 
13:30	49.8	49.8	49.8	36	23.9	1	4	112	0.00	30.240 
13:35	50.1	50.1	50.1	39	26.1	1	4	135	0.00	30.240 
13:40	50.4	50.4	50.4	37	25.1	2	6	90	0.00	30.240 
13:45	50.5	50.5	50.5	36	24.6	2	5	135	0.00	30.239 
13:50	50.5	50.5	50.5	34	23.2	2	6	112	0.00	30.239 
13:55	50.5	50.5	50.5	36	24.6	2	10	90	0.00	30.239 
14:00	51.0	51.0	51.0	32	22.2	2	5	112	0.00	30.226 
14:05	51.0	51.0	51.0	33	22.9	1	4	112	0.00	30.226 
14:10	51.1	51.1	51.1	34	23.7	1	3	112	0.00	30.226 
14:15	51.4	51.4	51.4	32	22.5	1	5	112	0.00	30.239 
14:20	51.4	51.4	51.4	32	22.5	1	4	90	0.00	30.239 
14:25	51.6	51.6	51.6	37	26.2	1	2	68	0.00	30.239 
14:30	51.9	51.9	51.9	38	27.1	0	2	68	0.00	30.239 
14:35	52.2	52.2	52.2	32	23.2	1	4	68	0.00	30.239 
14:40	52.5	52.5	52.5	34	25.0	2	5	90	0.00	30.239 
14:45	52.0	52.0	52.0	31	22.3	3	6	90	0.00	30.243 
14:50	51.7	51.7	51.7	31	22.1	1	3	112	0.00	30.243 
14:55	52.3	52.3	52.3	33	24.1	0	2	135	0.00	30.243 
15:00	52.8	52.8	52.8	32	23.8	1	3	112	0.00	30.241 
15:05	52.5	52.5	52.5	31	22.8	1	3	112	0.00	30.241 
15:10	52.9	52.9	52.9	31	23.1	1	4	112	0.00	30.241 
15:15	53.2	53.2	53.2	31	23.4	2	6	112	0.00	30.239 
15:20	53.2	53.2	53.2	33	24.9	1	6	112	0.00	30.239 
15:25	53.2	53.2	53.2	30	22.6	1	7	112	0.00	30.239 
15:30	53.1	53.1	53.1	27	20.0	1	4	112	0.00	30.232 
15:35	53.3	53.3	53.3	34	25.7	1	4	112	0.00	30.232 
15:40	53.6	53.6	53.6	32	24.5	1	3	112	0.00	30.232 
15:45	54.2	54.2	54.2	28	21.8	0	2	112	0.00	30.227 
15:50	54.7	54.7	54.7	28	22.2	1	2	112	0.00	30.227 
15:55	54.5	54.5	54.5	30	23.7	1	3	112	0.00	30.227 
16:00	54.4	54.4	54.4	31	24.4	1	2	112	0.00	30.224 
16:05	54.2	54.2	54.2	32	25.0	0	2	112	0.00	30.224 
16:10	54.4	54.4	54.4	27	21.1	1	3	112	0.00	30.224 
16:15	54.4	54.4	54.4	32	25.2	1	3	112	0.00	30.213 
16:20	54.4	54.4	54.4	27	21.1	1	2	315	0.00	30.213 
16:25	54.4	54.4	54.4	27	21.1	1	4	112	0.00	30.213 
16:30	54.1	54.1	54.1	28	21.7	1	4	112	0.00	30.210 
16:35	53.9	53.9	53.9	28	21.6	1	5	112	0.00	30.210 
16:40	53.9	53.9	53.9	28	21.6	0	4	112	0.00	30.210 
16:45	54.1	54.1	54.1	29	22.6	2	5	112	0.00	30.204 
16:50	54.2	54.2	54.2	28	21.8	1	3	90	0.00	30.204 
16:55	54.4	54.4	54.4	30	23.6	1	4	90	0.00	30.204 
17:00	54.4	54.4	54.4	34	26.6	1	2	90	0.00	30.198 
17:05	54.5	54.5	54.5	28	22.1	1	3	90	0.00	30.198 
17:10	54.1	54.1	54.1	27	20.9	0	2	90	0.00	30.198 
17:15	54.2	54.2	54.2	31	24.2	0	3	90	0.00	30.202 
17:20	54.4	54.4	54.4	27	21.1	0	3	90	0.00	30.202 
17:25	54.8	54.8	54.8	29	23.2	0	2	90	0.00	30.202 
17:30	55.0	55.0	55.0	27	21.6	0	3	90	0.00	30.207 
17:35	54.7	54.7	54.7	27	21.4	1	3	90	0.00	30.207 
17:40	54.5	54.5	54.5	29	22.9	0	2	90	0.00	30.207 
17:45	54.4	54.4	54.4	28	22.0	1	3	68	0.00	30.212 
17:50	54.4	54.4	54.4	29	22.8	0	2	68	0.00	30.212 
17:55	54.2	54.2	54.2	27	21.0	0	3	90	0.00	30.212 
18:00	53.8	53.8	53.8	28	21.5	1	3	90	0.00	30.216 
18:05	53.6	53.6	53.6	27	20.4	0	3	90	0.00	30.216 
18:10	53.5	53.5	53.5	28	21.2	1	3	90	0.00	30.216 
18:15	53.3	53.3	53.3	28	21.0	0	2	90	0.00	30.226 
18:20	53.2	53.2	53.2	29	21.8	0	1	90	0.00	30.226 
18:25	53.2	53.2	53.2	28	21.0	0	1	90	0.00	30.226 
18:30	53.3	53.3	53.3	31	23.4	0	0	---	0.00	30.224 
18:35	53.3	53.3	53.3	31	23.4	1	4	90	0.00	30.224 
18:40	53.1	53.1	53.1	27	20.0	1	4	90	0.00	30.224 
18:45	52.8	52.8	52.8	28	20.6	0	0	---	0.00	30.226 
18:50	52.5	52.5	52.5	29	21.2	0	2	90	0.00	30.226 
18:55	52.3	52.3	52.3	32	23.3	0	1	90	0.00	30.226 
19:00	52.2	52.2	52.2	29	20.9	0	1	90	0.00	30.219 
19:05	52.3	52.3	52.3	31	22.6	0	0	---	0.00	30.219 
19:10	52.3	52.3	52.3	29	21.0	0	1	90	0.00	30.219 
19:15	52.3	52.3	52.3	31	22.6	0	1	90	0.00	30.210 
19:20	52.3	52.3	52.3	28	20.2	0	3	90	0.00	30.210 
19:25	52.3	52.3	52.3	31	22.6	0	2	90	0.00	30.210 
19:30	52.3	52.3	52.3	30	21.8	0	0	---	0.00	30.208 
19:35	52.2	52.2	52.2	31	22.5	0	1	90	0.00	30.208 
19:40	52.2	52.2	52.2	32	23.2	0	0	---	0.00	30.208 
19:45	52.0	52.0	52.0	31	22.3	0	1	90	0.00	30.205 
19:50	52.0	52.0	52.0	31	22.3	0	2	90	0.00	30.205 
19:55	52.0	52.0	52.0	33	23.8	0	2	90	0.00	30.205 
20:00	51.9	51.9	51.9	31	22.2	1	3	90	0.00	30.196 
20:05	51.7	51.7	51.7	31	22.1	1	3	90	0.00	30.196 
20:10	51.6	51.6	51.6	31	22.0	1	2	90	0.00	30.196 
20:15	51.6	51.6	51.6	32	22.7	1	2	90	0.00	30.190 
20:20	51.4	51.4	51.4	31	21.8	1	2	90	0.00	30.190 
20:25	51.4	51.4	51.4	31	21.8	0	2	90	0.00	30.190 
20:30	51.3	51.3	51.3	31	21.7	1	3	90	0.00	30.190 
20:35	51.1	51.1	51.1	32	22.3	1	2	90	0.00	30.190 
20:40	51.1	51.1	51.1	34	23.7	0	3	90	0.00	30.190 
20:45	51.0	51.0	51.0	33	22.9	0	2	90	0.00	30.193 
20:50	51.0	51.0	51.0	33	22.9	1	3	90	0.00	30.193 
20:55	51.0	51.0	51.0	33	22.9	1	3	90	0.00	30.193 
21:00	50.8	50.8	50.8	35	24.1	1	3	90	0.00	30.184 
21:05	50.7	50.7	50.7	35	24.1	1	3	90	0.00	30.184 
21:10	50.5	50.5	50.5	35	23.9	1	3	90	0.00	30.184 
21:15	50.4	50.4	50.4	35	23.8	2	4	90	0.00	30.173 
21:20	50.4	50.4	50.4	35	23.8	1	3	90	0.00	30.173 
21:25	50.2	50.2	50.2	35	23.6	1	4	68	0.00	30.173 
21:30	50.2	50.2	50.2	36	24.3	1	3	68	0.00	30.169 
21:35	50.1	50.1	50.1	36	24.2	2	5	90	0.00	30.169 
21:40	50.1	50.1	50.1	37	24.9	1	3	22	0.00	30.169 
21:45	49.9	49.9	49.9	37	24.7	1	4	45	0.00	30.160 
21:50	49.9	49.9	49.9	36	24.0	1	3	45	0.00	30.160 
21:55	49.8	49.8	49.8	37	24.6	1	4	90	0.00	30.160 
22:00	49.8	49.8	49.8	38	25.2	1	5	112	0.00	30.158 
22:05	49.8	49.8	49.8	37	24.6	1	5	90	0.00	30.158 
22:10	49.8	49.8	49.8	37	24.6	1	3	90	0.00	30.158 
22:15	49.8	49.8	49.8	37	24.6	1	3	90	0.00	30.168 
22:20	49.8	49.8	49.8	36	23.9	2	5	90	0.00	30.168 
22:25	49.8	49.8	49.8	38	25.2	1	3	90	0.00	30.168 
22:30	49.8	49.8	49.8	38	25.2	1	3	90	0.00	30.165 
22:35	49.6	49.6	49.6	38	25.0	2	6	158	0.00	30.165 
22:40	49.5	49.5	49.5	39	25.6	1	4	68	0.00	30.165 
22:45	49.2	49.2	49.2	39	25.3	1	3	68	0.00	30.168 
22:50	49.2	49.2	49.2	40	25.9	1	4	68	0.00	30.168 
22:55	48.9	48.9	48.9	40	25.7	2	4	112	0.00	30.168 
23:00	48.9	48.9	48.9	42	26.8	1	4	68	0.00	30.169 
23:05	48.8	48.8	48.8	40	25.6	1	3	68	0.00	30.169 
23:10	48.8	48.8	48.8	40	25.6	1	3	68	0.00	30.169 
23:15	48.6	48.6	48.6	41	26.0	1	3	68	0.00	30.164 
23:20	48.6	48.6	48.6	41	26.0	1	2	68	0.00	30.164 
23:25	48.5	48.5	48.5	41	25.9	1	3	68	0.00	30.164 
23:30	48.3	48.3	48.3	41	25.7	0	2	68	0.00	30.163 
23:35	48.0	48.0	48.0	41	25.4	1	3	68	0.00	30.163 
23:40	48.0	48.0	48.0	41	25.4	1	2	68	0.00	30.163 
23:45	47.9	47.9	47.9	41	25.3	0	2	68	0.00	30.166 
23:50	47.7	47.7	47.7	41	25.2	0	1	68	0.00	30.166 
23:55	47.6	47.6	47.6	42	25.7	0	3	68	0.00	30.166 

CoCoRaHS
IN-AL-39
A2 Web Hosting
Creative Commons License
GoDaddy
search engine by freefind advanced

loaded 2018-11-17 19:25:03 • last modified 2010-11-18 10:43:29
Privacy PolicyDisclaimer
• wx.awcolley.com is powered by PmWiki v.2002016 •
• all content (unless otherwise noted) © 2018 A W Colley